Time;durP1;ratioP1;P1;durP2;ratioP2;P2;SDS_P1;SDS_P2;PMS_P1;PMS_P2;Temp;Humidity;BMP_temperature;BMP_pressure;BME280_temperature;BME280_humidity;BME280_pressure;Samples;Min_cycle;Max_cycle;Signal;HPM_P1;HPM_P2
2022/07/07 00:01:08;;;;;;;3.20;2.17;;;15.60;91.70;;;;;;5033417;28;20193;-70
2022/07/07 00:03:34;;;;;;;2.92;2.10;;;15.60;91.50;;;;;;5015193;28;20802;-70
2022/07/07 00:05:59;;;;;;;3.50;2.13;;;15.70;91.90;;;;;;5032696;28;20187;-70
2022/07/07 00:08:25;;;;;;;4.45;2.50;;;15.70;92.60;;;;;;5034836;28;20185;-70
2022/07/07 00:10:51;;;;;;;2.78;2.28;;;15.70;92.50;;;;;;5033432;28;20218;-70
2022/07/07 00:13:16;;;;;;;2.45;2.20;;;15.70;92.90;;;;;;5032457;28;20190;-70
2022/07/07 00:15:45;;;;;;;2.75;2.55;;;15.70;93.00;;;;;;5033298;28;20187;-70
2022/07/07 00:18:12;;;;;;;2.45;2.10;;;15.70;92.90;;;;;;5032984;28;20182;-71
2022/07/07 00:20:37;;;;;;;4.30;2.30;;;15.70;93.00;;;;;;5032675;28;20186;-70
2022/07/07 00:23:03;;;;;;;2.20;2.10;;;15.70;92.90;;;;;;5014784;28;20211;-70
2022/07/07 00:25:29;;;;;;;3.95;2.20;;;15.60;93.00;;;;;;5032721;28;20178;-70
2022/07/07 00:27:54;;;;;;;4.53;2.33;;;15.60;93.00;;;;;;5032781;28;20238;-71
2022/07/07 00:30:20;;;;;;;2.45;2.25;;;15.60;93.40;;;;;;5032409;28;20588;-70
2022/07/07 00:32:46;;;;;;;3.50;2.38;;;15.60;93.10;;;;;;5032576;28;20621;-71
2022/07/07 00:35:11;;;;;;;4.10;2.20;;;15.70;93.30;;;;;;5032255;28;20178;-69
2022/07/07 00:37:37;;;;;;;3.42;2.28;;;15.70;93.20;;;;;;5032266;28;20195;-71
2022/07/07 00:40:03;;;;;;;3.13;2.20;;;15.70;93.30;;;;;;5031659;28;20636;-70
2022/07/07 00:42:29;;;;;;;2.45;2.20;;;15.70;93.20;;;;;;5031754;28;20186;-70
2022/07/07 00:44:54;;;;;;;2.20;2.00;;;15.70;93.30;;;;;;5031172;28;20178;-71
2022/07/07 00:47:20;;;;;;;2.40;2.20;;;15.70;93.60;;;;;;5031121;28;20582;-71
2022/07/07 00:49:46;;;;;;;2.30;2.10;;;15.80;93.50;;;;;;5030965;28;20280;-71
2022/07/07 00:52:12;;;;;;;2.38;2.17;;;15.80;93.70;;;;;;5031596;28;20214;-69
2022/07/07 00:54:38;;;;;;;3.40;2.78;;;15.80;93.70;;;;;;5030064;28;20189;-70
2022/07/07 00:57:04;;;;;;;3.83;2.28;;;15.70;93.80;;;;;;5012738;28;20186;-71
2022/07/07 00:59:32;;;;;;;3.65;2.35;;;15.70;94.00;;;;;;5031186;28;20186;-70
2022/07/07 01:01:58;;;;;;;2.67;2.00;;;15.80;94.20;;;;;;5030932;28;20174;-70
2022/07/07 01:04:24;;;;;;;4.00;2.15;;;15.80;94.30;;;;;;5030952;28;20182;-71
2022/07/07 01:06:49;;;;;;;3.17;1.95;;;15.80;94.90;;;;;;5029973;28;20179;-70
2022/07/07 01:09:16;;;;;;;3.13;1.85;;;15.80;95.40;;;;;;5013228;28;20281;-70
2022/07/07 01:11:44;;;;;;;2.38;1.98;;;15.80;96.10;;;;;;5031184;28;20182;-71
2022/07/07 01:14:10;;;;;;;6.50;2.13;;;15.80;96.60;;;;;;5025355;28;20192;-71
2022/07/07 01:16:35;;;;;;;2.60;1.70;;;15.80;96.90;;;;;;5012201;28;20186;-71
2022/07/07 01:19:01;;;;;;;2.53;2.10;;;15.80;96.70;;;;;;5030614;28;20181;-71
2022/07/07 01:21:31;;;;;;;2.88;1.92;;;15.80;96.90;;;;;;5019189;28;20190;-71
2022/07/07 01:23:56;;;;;;;3.42;2.10;;;15.70;97.20;;;;;;5011569;28;20246;-71
2022/07/07 01:26:22;;;;;;;3.05;1.88;;;15.70;97.70;;;;;;5030268;28;20274;-71
2022/07/07 01:28:47;;;;;;;4.85;1.90;;;15.70;97.80;;;;;;5030806;28;20182;-71
2022/07/07 01:31:13;;;;;;;4.78;2.05;;;15.70;98.10;;;;;;5030558;28;20182;-70
2022/07/07 01:33:39;;;;;;;3.60;2.30;;;15.70;98.10;;;;;;5030411;28;20194;-71
2022/07/07 01:36:04;;;;;;;3.55;2.15;;;15.70;98.10;;;;;;5030645;28;20182;-71
2022/07/07 01:38:30;;;;;;;3.15;2.22;;;15.80;98.10;;;;;;4994142;28;1048902;-71
2022/07/07 01:40:56;;;;;;;2.10;1.90;;;15.80;98.00;;;;;;5031798;28;20563;-71
2022/07/07 01:43:21;;;;;;;2.50;1.90;;;15.80;97.50;;;;;;5031565;28;20206;-71
2022/07/07 01:45:47;;;;;;;1.92;1.83;;;15.80;97.40;;;;;;5031541;28;20726;-71
2022/07/07 01:48:12;;;;;;;2.42;1.95;;;15.80;97.80;;;;;;5031010;28;20186;-71
2022/07/07 01:50:38;;;;;;;3.80;1.92;;;15.80;97.80;;;;;;5031466;28;20249;-70
2022/07/07 01:53:03;;;;;;;2.30;1.90;;;15.80;97.80;;;;;;5031515;28;20185;-70
2022/07/07 01:55:29;;;;;;;3.67;2.10;;;15.80;98.30;;;;;;5031421;28;20503;-70
2022/07/07 01:57:54;;;;;;;7.80;3.00;;;15.80;98.30;;;;;;5031548;28;20178;-71
2022/07/07 02:00:20;;;;;;;3.25;2.05;;;15.90;97.80;;;;;;5031195;28;20608;-70
2022/07/07 02:02:45;;;;;;;3.50;2.22;;;15.90;97.00;;;;;;5031213;28;20186;-70
2022/07/07 02:05:11;;;;;;;6.25;2.22;;;15.90;96.80;;;;;;5031406;28;20277;-70
2022/07/07 02:07:36;;;;;;;2.42;2.03;;;15.90;96.90;;;;;;5030831;28;20252;-70
2022/07/07 02:10:04;;;;;;;2.45;2.20;;;15.90;97.00;;;;;;5030322;28;20216;-71
2022/07/07 02:12:30;;;;;;;3.90;2.00;;;15.90;97.10;;;;;;5031167;28;20232;-70
2022/07/07 02:14:57;;;;;;;6.32;2.45;;;15.90;97.00;;;;;;5012978;28;20174;-71
2022/07/07 02:17:23;;;;;;;2.30;1.90;;;15.90;97.00;;;;;;5021426;28;20634;-70
2022/07/07 02:19:48;;;;;;;3.97;2.20;;;16.00;97.20;;;;;;5029981;28;20274;-70
2022/07/07 02:22:13;;;;;;;3.55;2.30;;;15.90;97.20;;;;;;5030903;28;20185;-70
2022/07/07 02:24:39;;;;;;;3.20;2.22;;;15.90;97.00;;;;;;5030778;28;20668;-70
2022/07/07 02:27:04;;;;;;;1.80;1.70;;;15.90;97.50;;;;;;5013658;28;20265;-70
2022/07/07 02:29:30;;;;;;;2.17;1.98;;;15.90;97.60;;;;;;5030930;28;20348;-70
2022/07/07 02:31:55;;;;;;;1.88;1.77;;;15.90;97.80;;;;;;5031226;28;20629;-70
2022/07/07 02:34:21;;;;;;;3.30;2.25;;;15.80;97.80;;;;;;5029942;28;20184;-70
2022/07/07 02:36:46;;;;;;;3.72;2.38;;;15.80;97.90;;;;;;5012937;28;20575;-70
2022/07/07 02:39:12;;;;;;;2.20;2.03;;;15.80;97.80;;;;;;5030479;28;20257;-69
2022/07/07 02:41:37;;;;;;;3.65;2.08;;;15.80;97.80;;;;;;5013581;28;20225;-70
2022/07/07 02:44:03;;;;;;;2.85;2.13;;;15.80;98.00;;;;;;5030844;28;20232;-70
2022/07/07 02:46:29;;;;;;;2.42;2.20;;;15.70;98.00;;;;;;5030517;28;20186;-70
2022/07/07 02:48:55;;;;;;;2.75;2.05;;;15.80;98.20;;;;;;5029710;28;20185;-70
2022/07/07 02:51:20;;;;;;;3.45;2.40;;;15.70;98.80;;;;;;5020000;28;20183;-70
2022/07/07 02:53:46;;;;;;;2.75;2.30;;;15.70;99.30;;;;;;5019406;28;20186;-70
2022/07/07 02:56:11;;;;;;;3.10;2.28;;;15.70;99.60;;;;;;5030772;28;20200;-70
2022/07/07 02:58:37;;;;;;;3.97;2.38;;;15.70;99.70;;;;;;5030733;28;20204;-70
2022/07/07 03:01:03;;;;;;;3.70;2.17;;;15.60;99.60;;;;;;5030754;28;20182;-70
2022/07/07 03:03:28;;;;;;;3.20;2.35;;;15.60;99.60;;;;;;5031509;28;20182;-70
2022/07/07 03:05:54;;;;;;;3.47;2.67;;;15.60;99.60;;;;;;5030721;28;20552;-70
2022/07/07 03:08:20;;;;;;;2.60;2.40;;;15.70;99.60;;;;;;5030995;28;20281;-70
2022/07/07 03:10:45;;;;;;;7.57;4.78;;;15.70;99.60;;;;;;5030660;28;20668;-70
2022/07/07 03:13:11;;;;;;;6.93;4.13;;;15.70;99.70;;;;;;5030973;28;20567;-69
2022/07/07 03:15:36;;;;;;;6.18;3.38;;;15.70;99.30;;;;;;5030331;28;20232;-70
2022/07/07 03:18:02;;;;;;;3.38;2.50;;;15.70;99.30;;;;;;5030628;28;20196;-69
2022/07/07 03:20:28;;;;;;;3.03;2.45;;;15.70;99.20;;;;;;5031152;28;20178;-69
2022/07/07 03:22:53;;;;;;;5.07;2.30;;;15.60;99.00;;;;;;5034080;28;20193;-70
2022/07/07 03:25:19;;;;;;;4.75;2.00;;;15.60;98.80;;;;;;5034019;28;20649;-69
2022/07/07 03:27:44;;;;;;;2.50;2.00;;;15.60;98.30;;;;;;5032425;28;20197;-70
2022/07/07 03:30:10;;;;;;;2.70;1.75;;;15.50;98.00;;;;;;5033601;28;20217;-70
2022/07/07 03:32:36;;;;;;;2.42;1.80;;;15.50;98.10;;;;;;5033764;28;20179;-70
2022/07/07 03:35:03;;;;;;;1.73;1.63;;;15.50;98.00;;;;;;5033855;28;20265;-69
2022/07/07 03:37:29;;;;;;;3.72;2.10;;;15.50;97.60;;;;;;5000775;28;20556;-69
2022/07/07 03:39:54;;;;;;;1.98;1.88;;;15.60;97.70;;;;;;5009853;28;20241;-70
2022/07/07 03:42:20;;;;;;;2.20;2.00;;;15.60;97.90;;;;;;5015984;28;20177;-71
2022/07/07 03:44:45;;;;;;;3.83;2.00;;;15.50;97.80;;;;;;5033943;28;20514;-70
2022/07/07 03:47:12;;;;;;;3.70;1.90;;;15.50;98.20;;;;;;5028922;28;20182;-69
2022/07/07 03:49:38;;;;;;;3.38;2.25;;;15.50;98.10;;;;;;5033315;28;20221;-69
2022/07/07 03:52:04;;;;;;;2.25;2.03;;;15.40;98.20;;;;;;5015864;28;20541;-69
2022/07/07 03:54:30;;;;;;;2.00;1.88;;;15.40;98.40;;;;;;5033152;28;20189;-67
2022/07/07 03:56:55;;;;;;;3.10;2.00;;;15.30;98.70;;;;;;5015344;28;20182;-67
2022/07/07 03:59:21;;;;;;;4.68;2.03;;;15.30;98.90;;;;;;5033492;28;20642;-66
2022/07/07 04:01:46;;;;;;;3.50;2.22;;;15.30;99.10;;;;;;5015436;28;20190;-63
2022/07/07 04:04:12;;;;;;;2.45;2.00;;;15.40;99.20;;;;;;5033273;28;20174;-65
2022/07/07 04:06:38;;;;;;;2.50;1.95;;;15.50;98.70;;;;;;5027237;28;20194;-65
2022/07/07 04:09:04;;;;;;;1.95;1.85;;;15.50;98.50;;;;;;5031900;28;20185;-65
2022/07/07 04:11:30;;;;;;;5.60;2.35;;;15.50;98.70;;;;;;5024933;28;20182;-62
2022/07/07 04:13:55;;;;;;;3.28;2.20;;;15.60;98.60;;;;;;5029683;28;20649;-66
2022/07/07 04:16:21;;;;;;;2.72;2.15;;;15.60;98.50;;;;;;5032926;28;20179;-65
2022/07/07 04:18:46;;;;;;;2.88;1.95;;;15.60;98.50;;;;;;5032907;28;20228;-66
2022/07/07 04:21:12;;;;;;;4.00;2.30;;;15.60;98.20;;;;;;5032937;28;20212;-68
2022/07/07 04:23:37;;;;;;;2.53;2.33;;;15.70;98.20;;;;;;5012903;28;20190;-66
2022/07/07 04:26:03;;;;;;;3.47;2.10;;;15.70;98.20;;;;;;5032633;28;20232;-71
2022/07/07 04:28:30;;;;;;;7.35;2.10;;;15.80;98.10;;;;;;5031130;28;20273;-70
2022/07/07 04:30:55;;;;;;;2.20;2.00;;;15.90;97.90;;;;;;5032210;28;20288;-69
2022/07/07 04:37:29;;;;;;;3.30;1.95;;;16.00;97.90;;;;;;5029662;28;20308;-65
2022/07/07 04:39:55;;;;;;;2.53;2.00;;;16.30;97.30;;;;;;5031361;28;20244;-65
2022/07/07 04:42:20;;;;;;;3.15;1.80;;;16.60;96.90;;;;;;5032213;28;20178;-64
2022/07/07 04:44:46;;;;;;;3.92;1.67;;;16.70;96.50;;;;;;5032457;28;20220;-64
2022/07/07 04:47:11;;;;;;;3.20;1.90;;;16.80;96.40;;;;;;5032476;28;20182;-64
2022/07/07 04:49:37;;;;;;;4.45;1.98;;;16.80;96.20;;;;;;5032378;28;20241;-64
2022/07/07 04:52:03;;;;;;;6.38;2.53;;;16.80;96.20;;;;;;5014955;28;20703;-65
2022/07/07 04:54:28;;;;;;;5.80;2.78;;;16.80;95.80;;;;;;5032650;28;20223;-64
2022/07/07 04:56:54;;;;;;;5.13;3.20;;;16.80;95.90;;;;;;5032741;28;20189;-64
2022/07/07 04:59:19;;;;;;;4.28;1.83;;;16.70;96.00;;;;;;5032635;28;20212;-64
2022/07/07 05:01:45;;;;;;;1.65;1.55;;;16.70;95.80;;;;;;5032661;28;20521;-64
2022/07/07 05:04:10;;;;;;;3.78;1.35;;;16.70;95.80;;;;;;5032287;28;20683;-64
2022/07/07 05:06:36;;;;;;;2.08;1.88;;;16.70;95.80;;;;;;5032504;28;20196;-64
2022/07/07 05:09:02;;;;;;;1.63;1.48;;;16.50;95.90;;;;;;5032493;28;20181;-64
2022/07/07 05:11:27;;;;;;;2.00;1.52;;;16.40;96.20;;;;;;5032652;28;20331;-64
2022/07/07 05:13:53;;;;;;;5.65;1.85;;;16.70;96.70;;;;;;5032281;28;20565;-64
2022/07/07 05:16:19;;;;;;;1.45;1.35;;;17.30;96.00;;;;;;5032483;28;20174;-64
2022/07/07 05:18:44;;;;;;;4.50;1.30;;;17.90;94.80;;;;;;5032203;28;20178;-65
2022/07/07 05:21:10;;;;;;;1.60;1.33;;;18.10;94.10;;;;;;5032167;28;20228;-64
2022/07/07 05:23:35;;;;;;;2.33;1.58;;;18.10;93.80;;;;;;5032115;28;20315;-64
2022/07/07 05:26:01;;;;;;;2.45;1.30;;;18.00;93.20;;;;;;5032311;28;20629;-64
2022/07/07 05:28:26;;;;;;;1.23;1.20;;;17.90;93.40;;;;;;5032283;28;20185;-64
2022/07/07 05:30:52;;;;;;;2.30;1.40;;;17.70;93.60;;;;;;5032353;28;20221;-64
2022/07/07 05:33:18;;;;;;;3.35;1.40;;;17.60;94.30;;;;;;5030946;28;20178;-64
2022/07/07 05:35:43;;;;;;;1.30;1.20;;;17.50;94.50;;;;;;5032192;28;20182;-64
2022/07/07 05:38:09;;;;;;;2.83;1.50;;;17.40;95.00;;;;;;5031976;28;20289;-64
2022/07/07 05:40:34;;;;;;;2.70;1.42;;;17.40;94.80;;;;;;5031948;28;20271;-64
2022/07/07 05:43:00;;;;;;;1.38;1.27;;;17.30;94.60;;;;;;5031991;28;20174;-64
2022/07/07 05:45:25;;;;;;;4.00;1.63;;;17.30;94.80;;;;;;5032038;28;20181;-64
2022/07/07 05:47:51;;;;;;;3.35;2.03;;;17.30;94.80;;;;;;5031683;28;20253;-64
2022/07/07 05:50:17;;;;;;;3.22;1.83;;;17.20;95.00;;;;;;5031861;28;20209;-64
2022/07/07 05:52:42;;;;;;;1.67;1.20;;;17.20;95.20;;;;;;5031950;28;20188;-64
2022/07/07 05:55:08;;;;;;;3.35;1.70;;;17.20;95.30;;;;;;5031815;28;20232;-64
2022/07/07 05:57:34;;;;;;;2.58;1.55;;;17.10;95.40;;;;;;5031749;28;20178;-64
2022/07/07 05:59:59;;;;;;;1.15;1.05;;;17.10;95.50;;;;;;5031819;28;20269;-64
2022/07/07 06:02:25;;;;;;;3.00;1.38;;;17.00;95.40;;;;;;5031648;28;20253;-64
2022/07/07 06:04:50;;;;;;;1.50;1.40;;;17.00;95.80;;;;;;5031809;28;20182;-64
2022/07/07 06:07:16;;;;;;;2.58;1.33;;;17.00;96.00;;;;;;5031703;28;20181;-64
2022/07/07 06:09:42;;;;;;;1.27;1.23;;;17.00;95.90;;;;;;5031677;28;20309;-64
2022/07/07 06:12:08;;;;;;;3.47;1.58;;;17.00;95.90;;;;;;5031828;28;20174;-64
2022/07/07 06:14:34;;;;;;;1.55;1.42;;;17.00;96.10;;;;;;5031476;28;20181;-63
2022/07/07 06:17:00;;;;;;;1.98;1.60;;;17.00;96.00;;;;;;5031740;28;20166;-63
2022/07/07 06:19:25;;;;;;;4.90;1.45;;;17.10;96.10;;;;;;5031436;28;20180;-63
2022/07/07 06:21:51;;;;;;;4.85;2.10;;;17.10;96.00;;;;;;5031629;28;20253;-63
2022/07/07 06:24:17;;;;;;;2.60;1.80;;;17.10;96.00;;;;;;5031564;28;20189;-63
2022/07/07 06:26:42;;;;;;;5.78;1.63;;;17.10;95.90;;;;;;5031583;28;20210;-63
2022/07/07 06:29:08;;;;;;;3.50;1.60;;;17.10;95.70;;;;;;5031412;28;20178;-63
2022/07/07 06:31:33;;;;;;;4.38;2.53;;;17.20;95.90;;;;;;5031772;28;20533;-63
2022/07/07 06:33:59;;;;;;;3.22;1.73;;;17.20;95.70;;;;;;5031580;28;20645;-64
2022/07/07 06:36:25;;;;;;;1.98;1.40;;;17.30;95.40;;;;;;5031383;28;20186;-64
2022/07/07 06:38:50;;;;;;;4.97;1.70;;;17.40;95.50;;;;;;5031219;28;20656;-64
2022/07/07 06:41:16;;;;;;;2.97;1.50;;;17.50;95.20;;;;;;5031528;28;20229;-63
2022/07/07 06:43:42;;;;;;;4.60;1.70;;;17.60;95.20;;;;;;5031386;28;20177;-64
2022/07/07 06:46:08;;;;;;;2.63;1.63;;;17.80;95.20;;;;;;5031510;28;20213;-63
2022/07/07 06:48:33;;;;;;;4.03;1.42;;;18.00;95.00;;;;;;5031411;28;20193;-64
2022/07/07 06:50:58;;;;;;;1.27;1.13;;;18.10;94.60;;;;;;5031370;28;20214;-64
2022/07/07 06:53:25;;;;;;;2.50;1.23;;;18.20;94.50;;;;;;5031251;28;20261;-64
2022/07/07 06:55:50;;;;;;;3.10;1.33;;;18.50;94.40;;;;;;5033538;28;20248;-64
2022/07/07 06:58:16;;;;;;;2.38;1.38;;;19.00;94.40;;;;;;5035101;28;20178;-64
2022/07/07 07:00:41;;;;;;;1.83;1.40;;;19.40;93.00;;;;;;5035118;28;20646;-64
2022/07/07 07:03:07;;;;;;;2.17;1.40;;;19.40;92.30;;;;;;5034927;28;20197;-64
2022/07/07 07:05:33;;;;;;;4.93;1.40;;;19.30;92.70;;;;;;5034966;28;20185;-63
2022/07/07 07:07:58;;;;;;;2.60;1.35;;;19.30;93.00;;;;;;5035018;28;20182;-63
2022/07/07 07:10:24;;;;;;;3.92;1.75;;;19.30;92.90;;;;;;5034772;28;20606;-64
2022/07/07 07:12:49;;;;;;;4.60;1.40;;;19.20;92.80;;;;;;5034763;28;20174;-64
2022/07/07 07:15:15;;;;;;;3.13;1.40;;;19.10;93.10;;;;;;5034800;28;20185;-63
2022/07/07 07:17:42;;;;;;;4.00;1.55;;;19.00;93.10;;;;;;5034698;28;20170;-63
2022/07/07 07:20:09;;;;;;;2.95;1.10;;;18.90;93.00;;;;;;5034601;28;20185;-64
2022/07/07 07:22:39;;;;;;;4.60;1.40;;;18.70;93.00;;;;;;5034635;28;20668;-63
2022/07/07 07:25:05;;;;;;;2.28;1.50;;;18.70;93.30;;;;;;5034739;28;20240;-63
2022/07/07 07:27:30;;;;;;;1.63;1.40;;;18.60;93.50;;;;;;5034386;28;20253;-64
2022/07/07 07:29:56;;;;;;;3.15;1.42;;;18.50;93.40;;;;;;5034566;28;20224;-63
2022/07/07 07:32:21;;;;;;;3.45;1.25;;;18.50;93.60;;;;;;5034464;28;20170;-63
2022/07/07 07:34:47;;;;;;;2.88;1.48;;;18.60;93.40;;;;;;5034583;28;20197;-63
2022/07/07 07:37:12;;;;;;;2.58;1.38;;;18.80;93.50;;;;;;5034288;28;20170;-64
2022/07/07 07:39:38;;;;;;;5.45;1.60;;;19.00;93.60;;;;;;5034241;28;20232;-64
2022/07/07 07:42:04;;;;;;;1.73;1.40;;;19.20;93.20;;;;;;5034384;28;20185;-64
2022/07/07 07:47:14;;;;;;;4.60;1.63;;;19.20;92.70;;;;;;5034366;28;20236;-64
2022/07/07 07:49:39;;;;;;;2.38;1.42;;;19.00;92.70;;;;;;5034080;28;20210;-64
2022/07/07 07:52:05;;;;;;;3.08;1.60;;;19.00;93.00;;;;;;5034144;28;20174;-64
2022/07/07 07:54:31;;;;;;;4.00;1.65;;;19.00;93.20;;;;;;5033953;28;20190;-64
2022/07/07 07:56:56;;;;;;;1.40;1.30;;;19.00;93.20;;;;;;5034189;28;20178;-64
2022/07/07 07:59:22;;;;;;;3.67;1.52;;;19.10;93.40;;;;;;5034017;28;20206;-64
2022/07/07 08:01:47;;;;;;;3.10;1.80;;;19.10;93.50;;;;;;5034068;28;20186;-64
2022/07/07 08:04:13;;;;;;;2.35;1.50;;;19.10;93.30;;;;;;5033914;28;20178;-63
2022/07/07 08:06:38;;;;;;;3.78;1.35;;;19.20;93.50;;;;;;5033709;28;20205;-64
2022/07/07 08:09:04;;;;;;;2.03;1.40;;;19.30;93.60;;;;;;5033917;28;20182;-63
2022/07/07 08:11:29;;;;;;;2.53;1.55;;;19.30;93.50;;;;;;5033617;28;20209;-63
2022/07/07 08:13:55;;;;;;;3.55;1.63;;;19.20;93.40;;;;;;5033771;28;20652;-64
2022/07/07 08:16:20;;;;;;;4.47;1.88;;;19.20;94.00;;;;;;5033542;28;20182;-64
2022/07/07 08:18:46;;;;;;;3.15;1.83;;;19.10;93.70;;;;;;5033627;28;20186;-64
2022/07/07 08:21:11;;;;;;;3.35;1.50;;;19.00;93.90;;;;;;5033732;28;20170;-64
2022/07/07 08:23:37;;;;;;;2.22;1.63;;;18.90;94.20;;;;;;5033604;28;20201;-64
2022/07/07 08:26:02;;;;;;;7.55;1.90;;;18.80;94.20;;;;;;5033611;28;20245;-64
2022/07/07 08:28:28;;;;;;;1.85;1.73;;;18.70;96.40;;;;;;5033345;28;20186;-64
2022/07/07 08:30:54;;;;;;;4.35;1.98;;;18.60;97.60;;;;;;5033337;28;20260;-64
2022/07/07 08:33:19;;;;;;;4.13;2.00;;;18.40;97.70;;;;;;5033406;28;20171;-64
2022/07/07 08:35:45;;;;;;;2.60;2.10;;;18.40;99.50;;;;;;5033277;28;20664;-64
2022/07/07 08:38:10;;;;;;;5.10;1.88;;;18.40;99.90;;;;;;5033444;28;20174;-64
2022/07/07 08:40:36;;;;;;;5.22;2.72;;;18.50;99.90;;;;;;5033016;28;20783;-64
2022/07/07 08:43:02;;;;;;;3.25;2.00;;;18.70;99.90;;;;;;5033132;28;20272;-64
2022/07/07 08:45:27;;;;;;;2.25;1.83;;;19.00;99.10;;;;;;5033009;28;20182;-63
2022/07/07 08:47:54;;;;;;;1.65;1.52;;;19.20;98.50;;;;;;5033291;28;20548;-64
2022/07/07 08:50:20;;;;;;;3.33;2.10;;;19.60;98.20;;;;;;5032808;28;20209;-64
2022/07/07 08:52:47;;;;;;;3.53;1.88;;;19.80;97.40;;;;;;5033132;28;20712;-64
2022/07/07 08:55:15;;;;;;;3.33;1.77;;;20.10;96.70;;;;;;5032878;28;20529;-64
2022/07/07 08:57:42;;;;;;;2.13;1.67;;;20.30;96.20;;;;;;5032838;28;20190;-64
2022/07/07 09:00:08;;;;;;;3.88;2.35;;;20.40;96.30;;;;;;5032890;28;20185;-64
2022/07/07 09:02:34;;;;;;;4.13;2.13;;;20.30;96.30;;;;;;5032645;28;20221;-64
2022/07/07 09:04:59;;;;;;;3.28;2.00;;;20.20;96.30;;;;;;5032625;28;20563;-64
2022/07/07 09:07:47;;;;;;;4.90;2.03;;;20.10;96.80;;;;;;5032750;28;20202;-64
2022/07/07 09:10:30;;;;;;;3.35;1.92;;;20.00;97.10;;;;;;5032661;28;20297;-64
2022/07/07 09:12:56;;;;;;;5.47;1.92;;;19.90;97.40;;;;;;5032735;28;20185;-64
2022/07/07 09:15:21;;;;;;;3.17;2.10;;;19.90;97.60;;;;;;5032468;28;20178;-64
2022/07/07 09:17:47;;;;;;;3.65;2.28;;;19.80;97.40;;;;;;5032129;28;20178;-64
2022/07/07 09:20:13;;;;;;;5.35;2.03;;;19.60;97.60;;;;;;5032424;28;20231;-64
2022/07/07 09:22:53;;;;;;;2.42;1.73;;;19.60;97.80;;;;;;5032289;28;20185;-64
2022/07/07 09:25:21;;;;;;;3.85;1.80;;;19.70;97.70;;;;;;5032287;28;20174;-64
2022/07/07 09:27:59;;;;;;;3.10;2.08;;;19.90;97.70;;;;;;5032443;28;20178;-64
2022/07/07 09:30:43;;;;;;;2.78;1.70;;;20.30;97.90;;;;;;5032223;28;20214;-64
2022/07/07 09:33:11;;;;;;;2.72;2.40;;;20.70;96.90;;;;;;5032317;28;20178;-64
2022/07/07 09:38:23;;;;;;;1.88;1.58;;;20.90;95.90;;;;;;5032435;28;20185;-64
2022/07/07 09:40:49;;;;;;;1.73;1.63;;;20.90;95.80;;;;;;5032154;28;20218;-64
2022/07/07 09:43:14;;;;;;;2.30;1.60;;;21.00;96.00;;;;;;5032177;28;20549;-64
2022/07/07 09:45:40;;;;;;;3.72;1.50;;;21.00;95.70;;;;;;5031992;28;20166;-64
2022/07/07 09:48:08;;;;;;;2.55;1.83;;;21.00;95.90;;;;;;5032111;28;20634;-64
2022/07/07 09:50:34;;;;;;;2.13;1.88;;;21.10;95.90;;;;;;5031767;28;20236;-64
2022/07/07 09:53:07;;;;;;;3.00;1.75;;;21.00;95.80;;;;;;5032002;28;20645;-64
2022/07/07 09:55:33;;;;;;;2.28;1.73;;;20.90;95.80;;;;;;5032048;28;20744;-64
2022/07/07 09:57:58;;;;;;;2.75;1.75;;;20.90;96.20;;;;;;5031741;28;20676;-64
2022/07/07 10:00:24;;;;;;;2.22;1.67;;;21.10;96.30;;;;;;5031903;28;20174;-64
2022/07/07 10:02:51;;;;;;;2.25;1.90;;;21.20;96.10;;;;;;5031932;28;20177;-64
2022/07/07 10:05:17;;;;;;;4.78;2.00;;;21.40;96.00;;;;;;5031783;28;20182;-64
2022/07/07 10:07:47;;;;;;;2.20;1.70;;;21.40;95.80;;;;;;5031928;28;20178;-64
2022/07/07 10:10:13;;;;;;;5.15;2.05;;;21.40;95.80;;;;;;5031761;28;20214;-64
2022/07/07 10:12:49;;;;;;;2.00;1.83;;;21.40;95.70;;;;;;5031527;28;20666;-64
2022/07/07 10:15:14;;;;;;;1.70;1.60;;;21.40;95.70;;;;;;5031751;28;20545;-64
2022/07/07 10:17:41;;;;;;;2.70;1.85;;;21.60;95.60;;;;;;5031481;28;20170;-64
2022/07/07 10:20:08;;;;;;;1.90;1.73;;;21.80;95.90;;;;;;5031704;28;20710;-64
2022/07/07 10:22:35;;;;;;;3.85;1.77;;;22.00;95.30;;;;;;5031707;28;20182;-64
2022/07/07 10:25:05;;;;;;;3.35;1.60;;;22.20;95.10;;;;;;5031559;28;20181;-64
2022/07/07 10:27:31;;;;;;;2.20;1.55;;;22.20;94.60;;;;;;5031513;28;20189;-64
2022/07/07 10:29:57;;;;;;;2.40;1.60;;;22.20;94.60;;;;;;5032737;28;20289;-64
2022/07/07 10:32:23;;;;;;;2.22;1.88;;;22.00;94.30;;;;;;5035595;28;20185;-64
2022/07/07 10:34:51;;;;;;;5.45;2.08;;;21.70;94.50;;;;;;5035735;28;20217;-64
2022/07/07 10:37:18;;;;;;;2.17;1.88;;;21.40;95.20;;;;;;5035355;28;20186;-64
2022/07/07 10:39:48;;;;;;;6.38;2.22;;;21.20;95.70;;;;;;5035419;28;20217;-64
2022/07/07 10:42:17;;;;;;;2.33;1.80;;;21.10;96.10;;;;;;5035386;28;20642;-64
2022/07/07 10:44:49;;;;;;;2.60;1.70;;;21.10;96.50;;;;;;5035541;28;20552;-63
2022/07/07 10:47:17;;;;;;;6.13;2.10;;;21.00;96.80;;;;;;5035388;28;20177;-63
2022/07/07 10:49:54;;;;;;;4.97;2.17;;;20.80;96.80;;;;;;5035156;28;20802;-63
2022/07/07 10:52:22;;;;;;;3.92;2.00;;;20.70;97.20;;;;;;5035116;28;20182;-63
2022/07/07 10:54:58;;;;;;;2.80;2.00;;;20.60;97.10;;;;;;5035359;28;20182;-63
2022/07/07 10:57:43;;;;;;;3.15;2.25;;;20.50;97.50;;;;;;5035144;28;20288;-64
2022/07/07 11:00:18;;;;;;;3.50;1.90;;;20.60;97.50;;;;;;5035175;28;20181;-63
2022/07/07 11:02:50;;;;;;;6.10;2.30;;;20.70;97.40;;;;;;5034942;28;20224;-63
2022/07/07 11:05:15;;;;;;;5.45;1.75;;;20.80;97.30;;;;;;5035021;28;20220;-63
2022/07/07 11:07:56;;;;;;;4.55;1.83;;;21.00;97.30;;;;;;5034982;28;20550;-63
2022/07/07 11:10:40;;;;;;;4.35;1.88;;;21.20;97.00;;;;;;5034843;28;20571;-64
2022/07/07 11:13:42;;;;;;;2.97;2.00;;;21.40;97.20;;;;;;5034968;28;20178;-63
2022/07/07 11:16:21;;;;;;;1.92;1.75;;;21.50;96.30;;;;;;5034926;28;20186;-63
2022/07/07 11:18:58;;;;;;;4.10;1.73;;;21.50;96.30;;;;;;5034761;28;20269;-63
2022/07/07 11:21:43;;;;;;;5.45;1.70;;;21.40;96.20;;;;;;5034779;28;20181;-63
2022/07/07 11:24:13;;;;;;;4.13;1.90;;;21.30;96.60;;;;;;5034695;28;20217;-63
2022/07/07 11:26:39;;;;;;;3.03;1.70;;;21.10;96.80;;;;;;5034478;28;20178;-63
2022/07/07 11:29:04;;;;;;;10.60;2.25;;;20.90;97.10;;;;;;5034577;28;20205;-64
2022/07/07 11:31:30;;;;;;;2.92;1.70;;;20.80;97.40;;;;;;5034510;28;20252;-63
2022/07/07 11:33:57;;;;;;;3.75;1.75;;;20.70;97.80;;;;;;5034548;28;20217;-63
2022/07/07 11:36:25;;;;;;;5.28;1.70;;;20.60;97.90;;;;;;5034379;28;20297;-63
2022/07/07 11:38:55;;;;;;;3.05;1.73;;;20.60;98.20;;;;;;5034328;28;20201;-63
2022/07/07 11:41:35;;;;;;;3.42;1.90;;;20.60;98.50;;;;;;5033815;28;20173;-63
2022/07/07 11:44:01;;;;;;;2.35;2.00;;;20.50;98.60;;;;;;5034359;28;20228;-63
2022/07/07 11:46:26;;;;;;;3.22;1.75;;;20.40;98.90;;;;;;5034230;28;20170;-63
2022/07/07 11:48:52;;;;;;;3.42;1.88;;;20.30;98.90;;;;;;5034291;28;20178;-63
2022/07/07 11:51:28;;;;;;;2.10;1.90;;;20.30;99.10;;;;;;5034031;28;20225;-63
2022/07/07 11:53:59;;;;;;;5.80;2.33;;;20.30;99.80;;;;;;5034295;28;20173;-63
2022/07/07 11:56:32;;;;;;;3.08;1.63;;;20.30;99.70;;;;;;5033950;28;20595;-63
2022/07/07 11:58:59;;;;;;;2.42;1.80;;;20.50;99.80;;;;;;5033898;28;20178;-63
2022/07/07 12:01:25;;;;;;;1.85;1.60;;;20.80;99.50;;;;;;5033964;28;20209;-63
2022/07/07 12:03:51;;;;;;;4.35;1.67;;;21.10;99.00;;;;;;5033785;28;20641;-63
2022/07/07 12:06:16;;;;;;;3.75;2.00;;;21.30;98.60;;;;;;5033973;28;20174;-63
2022/07/07 12:08:43;;;;;;;2.30;1.88;;;21.30;98.30;;;;;;5033799;28;20181;-63
2022/07/07 12:11:12;;;;;;;3.65;1.92;;;21.30;98.20;;;;;;5033780;28;20210;-63
2022/07/07 12:13:38;;;;;;;5.60;1.88;;;21.20;98.50;;;;;;5033545;28;20178;-63
2022/07/07 12:16:04;;;;;;;5.50;1.90;;;21.20;98.40;;;;;;5033684;28;20300;-63
2022/07/07 12:18:38;;;;;;;2.85;1.95;;;21.20;98.50;;;;;;5033388;28;20174;-63
2022/07/07 12:21:09;;;;;;;4.53;1.90;;;21.20;98.50;;;;;;5032415;28;20216;-63
2022/07/07 12:23:38;;;;;;;4.45;1.80;;;21.20;98.40;;;;;;5033584;28;20171;-63
2022/07/07 12:26:11;;;;;;;9.95;1.90;;;21.10;98.00;;;;;;5033443;28;20640;-63
2022/07/07 12:28:37;;;;;;;5.85;1.83;;;21.10;98.00;;;;;;5033382;28;20643;-63
2022/07/07 12:31:04;;;;;;;2.28;1.70;;;21.10;97.30;;;;;;5033368;28;20313;-63
2022/07/07 12:33:40;;;;;;;4.47;1.60;;;21.00;96.80;;;;;;5033229;28;20162;-63
2022/07/07 12:36:16;;;;;;;2.95;1.60;;;21.00;96.90;;;;;;5033294;28;20518;-64
2022/07/07 12:38:47;;;;;;;2.33;1.65;;;21.00;97.00;;;;;;5032939;28;20177;-63
2022/07/07 12:41:42;;;;;;;2.60;1.33;;;20.90;98.40;;;;;;5033147;28;20189;-63
2022/07/07 12:44:30;;;;;;;1.88;1.38;;;20.70;99.90;;;;;;5016179;28;20217;-63
2022/07/07 12:46:58;;;;;;;1.35;1.08;;;20.30;99.90;;;;;;5033206;28;20266;-63
2022/07/07 12:49:24;;;;;;;3.45;1.23;;;20.00;99.90;;;;;;5032875;28;20178;-63
2022/07/07 12:51:51;;;;;;;1.38;1.27;;;19.70;99.90;;;;;;5032910;28;20174;-63
2022/07/07 12:54:22;;;;;;;1.23;1.10;;;19.60;99.90;;;;;;5032328;28;20186;-63